Terminal Aerodrome Forecast
Issued by NWS Sioux Falls, SD

Home | Current Version | Previous Version | Text Only | Print | Product List | Glossary On
Versions: 1 2 3 4 5 6 7 8 9 10 11 12 13 14 15 16
000
FTUS43 KFSD 281125
TAFFSD
TAF
KFSD 281125Z 2812/2912 14009KT P6SM BKN040
     FM281600 16013KT P6SM SCT040
     FM282000 17018G26KT P6SM SCT200
     FM290300 17023G29KT P6SM SCT120 WS020/19048KT
     FM290600 19020G32KT P6SM BKN110 WS020/20052KT
     FM290900 25013G22KT P6SM SCT120
     FM291100 30014G32KT P6SM SCT040=

USA.gov is the U.S. government's official web portal to all federal, state and local government web resources and services.